CFG5PF EGKK-EDDF
Flight info
| Callsign | CFG5PF |
|---|---|
| Flight time | N/A |
| Altitude | 33000 |
| Route | DVR UL9 KONAN UL607 KOK DCT REMBA UL607 SPI T180 NIVNU/N0406F230 T847 IMCOM IMCOM1B |
| Aircraft | A320/M-SDE3FGHIRWY/LB1 |
Departure
| Time | 2026-05-07 17:30 |
|---|---|
| Airport | London Gatwick Airport (EGKK) |
Arrival
| Time | N/A |
|---|---|
| Airport | Frankfurt Main Airport (EDDF) |
| Time | Latitude | Longitude | Altitude | Speed | Heading |
|---|---|---|---|---|---|
| 2026-05-07 17:01 | 51.15660 | -0.17699 | 204 ft | 0 kts | 167° |
| 2026-05-07 17:16 | 51.15665 | -0.17701 | 215 ft | 2 kts | 166° |
| 2026-05-07 17:17 | 51.15681 | -0.17707 | 217 ft | 2 kts | 168° |
| 2026-05-07 17:17 | 51.15697 | -0.17712 | 213 ft | 2 kts | 169° |
| 2026-05-07 17:17 | 51.15713 | -0.17717 | 214 ft | 2 kts | 173° |
| 2026-05-07 17:17 | 51.15730 | -0.17719 | 212 ft | 2 kts | 219° |
| 2026-05-07 17:18 | 51.15736 | -0.17708 | 207 ft | 0 kts | 261° |
| 2026-05-07 17:18 | 51.15736 | -0.17707 | 207 ft | 0 kts | 261° |
| 2026-05-07 17:19 | 51.15735 | -0.17713 | 208 ft | 4 kts | 257° |
| 2026-05-07 17:19 | 51.15723 | -0.17798 | 204 ft | 8 kts | 257° |
| 2026-05-07 17:20 | 51.15712 | -0.17872 | 207 ft | 6 kts | 257° |
| 2026-05-07 17:20 | 51.15699 | -0.17968 | 207 ft | 13 kts | 257° |
| 2026-05-07 17:20 | 51.15681 | -0.18098 | 207 ft | 11 kts | 258° |
| 2026-05-07 17:20 | 51.15667 | -0.18204 | 209 ft | 9 kts | 257° |
| 2026-05-07 17:21 | 51.15655 | -0.18289 | 207 ft | 7 kts | 258° |
| 2026-05-07 17:21 | 51.15640 | -0.18395 | 204 ft | 17 kts | 257° |
| 2026-05-07 17:21 | 51.15612 | -0.18606 | 204 ft | 20 kts | 257° |
| 2026-05-07 17:21 | 51.15572 | -0.18818 | 209 ft | 19 kts | 225° |
| 2026-05-07 17:22 | 51.15451 | -0.18797 | 207 ft | 18 kts | 168° |
| 2026-05-07 17:22 | 51.15323 | -0.18754 | 210 ft | 19 kts | 168° |
| 2026-05-07 17:22 | 51.15197 | -0.18709 | 216 ft | 18 kts | 168° |
| 2026-05-07 17:22 | 51.15121 | -0.18810 | 204 ft | 16 kts | 257° |
| 2026-05-07 17:23 | 51.15098 | -0.18973 | 211 ft | 14 kts | 258° |
| 2026-05-07 17:23 | 51.15072 | -0.19164 | 211 ft | 19 kts | 258° |
| 2026-05-07 17:23 | 51.15045 | -0.19365 | 207 ft | 18 kts | 258° |
| 2026-05-07 17:23 | 51.15020 | -0.19544 | 208 ft | 15 kts | 257° |
| 2026-05-07 17:24 | 51.14999 | -0.19695 | 214 ft | 13 kts | 257° |
| 2026-05-07 17:24 | 51.14981 | -0.19824 | 210 ft | 12 kts | 257° |
| 2026-05-07 17:24 | 51.14963 | -0.19955 | 205 ft | 11 kts | 257° |
| 2026-05-07 17:24 | 51.14944 | -0.20091 | 204 ft | 17 kts | 257° |
| 2026-05-07 17:25 | 51.14917 | -0.20287 | 204 ft | 18 kts | 257° |
| 2026-05-07 17:25 | 51.14891 | -0.20478 | 204 ft | 17 kts | 257° |
| 2026-05-07 17:25 | 51.14866 | -0.20650 | 207 ft | 15 kts | 257° |
| 2026-05-07 17:25 | 51.14846 | -0.20796 | 205 ft | 12 kts | 257° |
| 2026-05-07 17:26 | 51.14830 | -0.20916 | 208 ft | 10 kts | 258° |
| 2026-05-07 17:26 | 51.14808 | -0.21073 | 209 ft | 18 kts | 258° |
| 2026-05-07 17:26 | 51.14772 | -0.21265 | 205 ft | 18 kts | 257° |
| 2026-05-07 17:26 | 51.14710 | -0.21406 | 205 ft | 16 kts | 176° |
| 2026-05-07 17:27 | 51.14630 | -0.21336 | 207 ft | 10 kts | 161° |
| 2026-05-07 17:27 | 51.14612 | -0.21329 | 207 ft | 0 kts | 166° |
| 2026-05-07 17:28 | 51.14588 | -0.21318 | 214 ft | 13 kts | 163° |
| 2026-05-07 17:28 | 51.14522 | -0.21204 | 214 ft | 15 kts | 101° |
| 2026-05-07 17:29 | 51.14529 | -0.21109 | 211 ft | 0 kts | 77° |
| 2026-05-07 17:29 | 51.14552 | -0.20940 | 212 ft | 49 kts | 78° |
| 2026-05-07 17:30 | 51.14674 | -0.20054 | 212 ft | 111 kts | 78° |
| 2026-05-07 17:30 | 51.14875 | -0.18599 | 213 ft | 156 kts | 77° |
| 2026-05-07 17:30 | 51.15123 | -0.16736 | 387 ft | 178 kts | 80° |
| 2026-05-07 17:30 | 51.15373 | -0.14861 | 1107 ft | 172 kts | 80° |
| 2026-05-07 17:31 | 51.15634 | -0.13017 | 1678 ft | 170 kts | 80° |
| 2026-05-07 17:31 | 51.15892 | -0.11147 | 2011 ft | 181 kts | 78° |
| 2026-05-07 17:31 | 51.16169 | -0.09117 | 2196 ft | 200 kts | 79° |
| 2026-05-07 17:31 | 51.16482 | -0.06826 | 2433 ft | 220 kts | 79° |
| 2026-05-07 17:32 | 51.16817 | -0.04328 | 2774 ft | 238 kts | 82° |
| 2026-05-07 17:32 | 51.16862 | -0.01591 | 3203 ft | 254 kts | 92° |
| 2026-05-07 17:32 | 51.16807 | 0.01244 | 3825 ft | 258 kts | 92° |
| 2026-05-07 17:32 | 51.16755 | 0.04034 | 4555 ft | 261 kts | 91° |
| 2026-05-07 17:33 | 51.16701 | 0.06942 | 5293 ft | 264 kts | 91° |
| 2026-05-07 17:33 | 51.16645 | 0.09878 | 6001 ft | 267 kts | 91° |
| 2026-05-07 17:33 | 51.16588 | 0.12854 | 6675 ft | 270 kts | 91° |
| 2026-05-07 17:33 | 51.16534 | 0.15877 | 7290 ft | 275 kts | 91° |
| 2026-05-07 17:34 | 51.16516 | 0.18959 | 7885 ft | 281 kts | 91° |
| 2026-05-07 17:34 | 51.16528 | 0.22098 | 8504 ft | 286 kts | 90° |
| 2026-05-07 17:34 | 51.16547 | 0.25287 | 9151 ft | 290 kts | 91° |
| 2026-05-07 17:34 | 51.16564 | 0.28520 | 9766 ft | 294 kts | 91° |
| 2026-05-07 17:35 | 51.16576 | 0.31803 | 10355 ft | 298 kts | 91° |
| 2026-05-07 17:35 | 51.16584 | 0.35111 | 10962 ft | 300 kts | 91° |
| 2026-05-07 17:35 | 51.16590 | 0.38451 | 11574 ft | 303 kts | 91° |
| 2026-05-07 17:35 | 51.16594 | 0.41820 | 12187 ft | 305 kts | 91° |
| 2026-05-07 17:36 | 51.16596 | 0.45208 | 12793 ft | 308 kts | 92° |
| 2026-05-07 17:36 | 51.16595 | 0.48636 | 13402 ft | 310 kts | 91° |
| 2026-05-07 17:36 | 51.16591 | 0.52150 | 13628 ft | 326 kts | 91° |
| 2026-05-07 17:36 | 51.16586 | 0.55863 | 13759 ft | 344 kts | 91° |
| 2026-05-07 17:37 | 51.16581 | 0.59762 | 13895 ft | 360 kts | 91° |
| 2026-05-07 17:37 | 51.16575 | 0.63844 | 14039 ft | 376 kts | 91° |
| 2026-05-07 17:37 | 51.16570 | 0.68077 | 14330 ft | 386 kts | 91° |
| 2026-05-07 17:37 | 51.16564 | 0.72368 | 14791 ft | 390 kts | 91° |
| 2026-05-07 17:38 | 51.16556 | 0.76713 | 15294 ft | 393 kts | 91° |
| 2026-05-07 17:38 | 51.16547 | 0.81036 | 15797 ft | 397 kts | 91° |
| 2026-05-07 17:38 | 51.16537 | 0.85502 | 16306 ft | 400 kts | 91° |
| 2026-05-07 17:38 | 51.16523 | 0.89959 | 16803 ft | 403 kts | 91° |
| 2026-05-07 17:39 | 51.16505 | 0.94400 | 17328 ft | 407 kts | 91° |
| 2026-05-07 17:39 | 51.16483 | 0.98927 | 17810 ft | 410 kts | 91° |
| 2026-05-07 17:39 | 51.16459 | 1.03491 | 18288 ft | 413 kts | 91° |
| 2026-05-07 17:39 | 51.16434 | 1.08081 | 18695 ft | 416 kts | 91° |
| 2026-05-07 17:40 | 51.16412 | 1.12702 | 19098 ft | 419 kts | 91° |
| 2026-05-07 17:40 | 51.16391 | 1.17358 | 19498 ft | 422 kts | 91° |
| 2026-05-07 17:40 | 51.16366 | 1.22044 | 19884 ft | 424 kts | 91° |
| 2026-05-07 17:40 | 51.16334 | 1.26754 | 20274 ft | 427 kts | 91° |
| 2026-05-07 17:41 | 51.16301 | 1.31494 | 20647 ft | 429 kts | 91° |
| 2026-05-07 17:41 | 51.16260 | 1.36269 | 21014 ft | 432 kts | 92° |
| 2026-05-07 17:41 | 51.16138 | 1.41063 | 21371 ft | 434 kts | 94° |
| 2026-05-07 17:41 | 51.15928 | 1.45874 | 21724 ft | 436 kts | 95° |
| 2026-05-07 17:42 | 51.15666 | 1.50700 | 22070 ft | 438 kts | 96° |
| 2026-05-07 17:42 | 51.15384 | 1.55549 | 22398 ft | 441 kts | 96° |
| 2026-05-07 17:42 | 51.15104 | 1.60425 | 22722 ft | 443 kts | 96° |
| 2026-05-07 17:42 | 51.14835 | 1.65341 | 23042 ft | 446 kts | 96° |
| 2026-05-07 17:43 | 51.14580 | 1.70266 | 23349 ft | 448 kts | 95° |
| 2026-05-07 17:43 | 51.14334 | 1.75224 | 23651 ft | 450 kts | 95° |
| 2026-05-07 17:43 | 51.14086 | 1.80209 | 23904 ft | 452 kts | 95° |
| 2026-05-07 17:43 | 51.13834 | 1.85211 | 24159 ft | 454 kts | 95° |
| 2026-05-07 17:44 | 51.13582 | 1.90225 | 24422 ft | 456 kts | 95° |
| 2026-05-07 17:44 | 51.13326 | 1.95271 | 24681 ft | 457 kts | 95° |
| 2026-05-07 17:44 | 51.13065 | 2.00333 | 24932 ft | 459 kts | 96° |
| 2026-05-07 17:44 | 51.12803 | 2.05357 | 25171 ft | 461 kts | 96° |
| 2026-05-07 17:45 | 51.12537 | 2.10427 | 25401 ft | 462 kts | 96° |
| 2026-05-07 17:45 | 51.12262 | 2.15538 | 25635 ft | 464 kts | 96° |
| 2026-05-07 17:45 | 51.11984 | 2.20659 | 25860 ft | 466 kts | 96° |
| 2026-05-07 17:45 | 51.11700 | 2.25803 | 26082 ft | 467 kts | 96° |
| 2026-05-07 17:46 | 51.11412 | 2.30966 | 26283 ft | 469 kts | 96° |
| 2026-05-07 17:46 | 51.11122 | 2.36141 | 26494 ft | 470 kts | 96° |
| 2026-05-07 17:46 | 51.10831 | 2.41330 | 26706 ft | 471 kts | 96° |
| 2026-05-07 17:46 | 51.10538 | 2.46539 | 26915 ft | 473 kts | 96° |
| 2026-05-07 17:47 | 51.10244 | 2.51754 | 27110 ft | 474 kts | 96° |
| 2026-05-07 17:47 | 51.09945 | 2.56986 | 27297 ft | 475 kts | 96° |
| 2026-05-07 17:47 | 51.09639 | 2.62236 | 27482 ft | 477 kts | 97° |
| 2026-05-07 17:47 | 51.09058 | 2.67431 | 27645 ft | 476 kts | 106° |
| 2026-05-07 17:48 | 51.08151 | 2.72500 | 27815 ft | 477 kts | 108° |
| 2026-05-07 17:48 | 51.07239 | 2.77512 | 27975 ft | 479 kts | 107° |
| 2026-05-07 17:48 | 51.06315 | 2.82603 | 28174 ft | 479 kts | 107° |
| 2026-05-07 17:48 | 51.05391 | 2.87690 | 28411 ft | 478 kts | 107° |
| 2026-05-07 17:49 | 51.04473 | 2.92737 | 28658 ft | 477 kts | 108° |
| 2026-05-07 17:49 | 51.03550 | 2.97805 | 28878 ft | 477 kts | 108° |
| 2026-05-07 17:49 | 51.02625 | 3.02863 | 29104 ft | 476 kts | 108° |